sensor_id;sensor_type;location;lat;lon;timestamp;temperature;humidity
38241;DHT22;24037;49.536;8.500;2023-03-11T00:00:53;2.50;99.90
38241;DHT22;24037;49.536;8.500;2023-03-11T00:03:19;2.50;99.90
38241;DHT22;24037;49.536;8.500;2023-03-11T00:05:48;2.50;99.90
38241;DHT22;24037;49.536;8.500;2023-03-11T00:08:17;2.40;99.90
38241;DHT22;24037;49.536;8.500;2023-03-11T00:10:45;2.40;99.90
38241;DHT22;24037;49.536;8.500;2023-03-11T00:13:14;2.30;99.90
38241;DHT22;24037;49.536;8.500;2023-03-11T00:15:42;2.30;99.90
38241;DHT22;24037;49.536;8.500;2023-03-11T00:18:09;2.30;99.90
38241;DHT22;24037;49.536;8.500;2023-03-11T00:20:37;2.30;99.90
38241;DHT22;24037;49.536;8.500;2023-03-11T00:23:06;2.30;99.90
38241;DHT22;24037;49.536;8.500;2023-03-11T00:25:34;2.20;99.90
38241;DHT22;24037;49.536;8.500;2023-03-11T00:28:01;2.30;99.90
38241;DHT22;24037;49.536;8.500;2023-03-11T00:30:28;2.20;99.90
38241;DHT22;24037;49.536;8.500;2023-03-11T00:32:56;2.20;99.90
38241;DHT22;24037;49.536;8.500;2023-03-11T00:35:29;2.20;99.90
38241;DHT22;24037;49.536;8.500;2023-03-11T00:37:58;2.10;99.90
38241;DHT22;24037;49.536;8.500;2023-03-11T00:40:27;2.10;99.90
38241;DHT22;24037;49.536;8.500;2023-03-11T00:42:53;2.20;99.90
38241;DHT22;24037;49.536;8.500;2023-03-11T00:45:21;2.20;99.90
38241;DHT22;24037;49.536;8.500;2023-03-11T00:47:47;2.10;99.90
38241;DHT22;24037;49.536;8.500;2023-03-11T00:50:20;2.00;99.90
38241;DHT22;24037;49.536;8.500;2023-03-11T00:52:47;2.00;99.90
38241;DHT22;24037;49.536;8.500;2023-03-11T00:55:16;2.00;99.90
38241;DHT22;24037;49.536;8.500;2023-03-11T00:57:43;2.00;99.90
38241;DHT22;24037;49.536;8.500;2023-03-11T01:00:15;2.00;99.90
38241;DHT22;24037;49.536;8.500;2023-03-11T01:02:41;2.00;99.90
38241;DHT22;24037;49.536;8.500;2023-03-11T01:05:08;2.00;99.90
38241;DHT22;24037;49.536;8.500;2023-03-11T01:07:35;2.00;99.90
38241;DHT22;24037;49.536;8.500;2023-03-11T01:10:04;2.00;99.90
38241;DHT22;24037;49.536;8.500;2023-03-11T01:12:30;2.10;99.90
38241;DHT22;24037;49.536;8.500;2023-03-11T01:15:00;2.00;99.90
38241;DHT22;24037;49.536;8.500;2023-03-11T01:17:26;2.00;99.90
38241;DHT22;24037;49.536;8.500;2023-03-11T01:19:52;2.10;99.90
38241;DHT22;24037;49.536;8.500;2023-03-11T01:22:18;2.10;99.90
38241;DHT22;24037;49.536;8.500;2023-03-11T01:24:44;2.00;99.90
38241;DHT22;24037;49.536;8.500;2023-03-11T01:27:10;2.10;99.90
38241;DHT22;24037;49.536;8.500;2023-03-11T01:29:36;2.00;99.90
38241;DHT22;24037;49.536;8.500;2023-03-11T01:32:03;2.00;99.90
38241;DHT22;24037;49.536;8.500;2023-03-11T01:34:29;1.90;99.90
38241;DHT22;24037;49.536;8.500;2023-03-11T01:36:57;1.90;99.90
38241;DHT22;24037;49.536;8.500;2023-03-11T01:39:24;1.90;99.90
38241;DHT22;24037;49.536;8.500;2023-03-11T01:41:51;1.80;99.90
38241;DHT22;24037;49.536;8.500;2023-03-11T01:44:18;1.80;99.90
38241;DHT22;24037;49.536;8.500;2023-03-11T01:49:25;1.90;99.90
38241;DHT22;24037;49.536;8.500;2023-03-11T01:51:59;1.90;99.90
38241;DHT22;24037;49.536;8.500;2023-03-11T01:54:36;1.80;99.90
38241;DHT22;24037;49.536;8.500;2023-03-11T01:57:11;1.80;99.90
38241;DHT22;24037;49.536;8.500;2023-03-11T01:59:42;1.80;99.90
38241;DHT22;24037;49.536;8.500;2023-03-11T02:04:48;1.80;99.90
38241;DHT22;24037;49.536;8.500;2023-03-11T02:07:16;1.90;99.90
38241;DHT22;24037;49.536;8.500;2023-03-11T02:09:44;1.90;99.90
38241;DHT22;24037;49.536;8.500;2023-03-11T02:12:12;2.00;99.90
38241;DHT22;24037;49.536;8.500;2023-03-11T02:14:44;2.10;99.90
38241;DHT22;24037;49.536;8.500;2023-03-11T02:17:11;2.10;99.90
38241;DHT22;24037;49.536;8.500;2023-03-11T02:22:28;2.00;99.90
38241;DHT22;24037;49.536;8.500;2023-03-11T02:25:02;2.00;99.90
38241;DHT22;24037;49.536;8.500;2023-03-11T02:27:32;2.00;99.90
38241;DHT22;24037;49.536;8.500;2023-03-11T02:30:03;2.00;99.90
38241;DHT22;24037;49.536;8.500;2023-03-11T02:32:33;1.90;99.90
38241;DHT22;24037;49.536;8.500;2023-03-11T02:35:00;1.80;99.90
38241;DHT22;24037;49.536;8.500;2023-03-11T02:37:26;1.70;99.90
38241;DHT22;24037;49.536;8.500;2023-03-11T02:42:55;1.70;99.90
38241;DHT22;24037;49.536;8.500;2023-03-11T02:45:24;1.60;99.90
38241;DHT22;24037;49.536;8.500;2023-03-11T02:47:56;1.70;99.90
38241;DHT22;24037;49.536;8.500;2023-03-11T02:50:23;1.70;99.90
38241;DHT22;24037;49.536;8.500;2023-03-11T02:52:54;1.60;99.90
38241;DHT22;24037;49.536;8.500;2023-03-11T02:55:22;1.70;99.90
38241;DHT22;24037;49.536;8.500;2023-03-11T02:57:51;1.70;99.90
38241;DHT22;24037;49.536;8.500;2023-03-11T03:00:17;1.80;99.90
38241;DHT22;24037;49.536;8.500;2023-03-11T03:02:51;1.80;99.90
38241;DHT22;24037;49.536;8.500;2023-03-11T03:05:20;1.80;99.90
38241;DHT22;24037;49.536;8.500;2023-03-11T03:07:47;1.70;99.90
38241;DHT22;24037;49.536;8.500;2023-03-11T03:10:15;1.70;99.90
38241;DHT22;24037;49.536;8.500;2023-03-11T03:12:41;1.80;99.90
38241;DHT22;24037;49.536;8.500;2023-03-11T03:15:09;1.80;99.90
38241;DHT22;24037;49.536;8.500;2023-03-11T03:17:37;1.80;99.90
38241;DHT22;24037;49.536;8.500;2023-03-11T03:20:07;1.60;99.90
38241;DHT22;24037;49.536;8.500;2023-03-11T03:22:38;1.60;99.90
38241;DHT22;24037;49.536;8.500;2023-03-11T03:25:05;1.70;99.90
38241;DHT22;24037;49.536;8.500;2023-03-11T03:27:32;1.60;99.90
38241;DHT22;24037;49.536;8.500;2023-03-11T03:30:02;1.60;99.90
38241;DHT22;24037;49.536;8.500;2023-03-11T03:32:29;1.50;99.90
38241;DHT22;24037;49.536;8.500;2023-03-11T03:34:55;1.50;99.90
38241;DHT22;24037;49.536;8.500;2023-03-11T03:37:35;1.50;99.90
38241;DHT22;24037;49.536;8.500;2023-03-11T03:40:03;1.50;99.90
38241;DHT22;24037;49.536;8.500;2023-03-11T03:42:35;1.50;99.90
38241;DHT22;24037;49.536;8.500;2023-03-11T03:45:04;1.50;99.90
38241;DHT22;24037;49.536;8.500;2023-03-11T03:47:31;1.50;99.90
38241;DHT22;24037;49.536;8.500;2023-03-11T03:49:57;1.40;99.90
38241;DHT22;24037;49.536;8.500;2023-03-11T03:52:24;1.50;99.90
38241;DHT22;24037;49.536;8.500;2023-03-11T03:54:50;1.40;99.90
38241;DHT22;24037;49.536;8.500;2023-03-11T03:57:17;1.40;99.90
38241;DHT22;24037;49.536;8.500;2023-03-11T03:59:45;1.40;99.90
38241;DHT22;24037;49.536;8.500;2023-03-11T04:02:12;1.50;99.90
38241;DHT22;24037;49.536;8.500;2023-03-11T04:04:38;1.50;99.90
38241;DHT22;24037;49.536;8.500;2023-03-11T04:07:04;1.50;99.90
38241;DHT22;24037;49.536;8.500;2023-03-11T04:09:32;1.40;99.90
38241;DHT22;24037;49.536;8.500;2023-03-11T04:11:58;1.40;99.90
38241;DHT22;24037;49.536;8.500;2023-03-11T04:14:26;1.40;99.90
38241;DHT22;24037;49.536;8.500;2023-03-11T04:16:56;1.40;99.90
38241;DHT22;24037;49.536;8.500;2023-03-11T04:19:23;1.40;99.90
38241;DHT22;24037;49.536;8.500;2023-03-11T04:21:50;1.40;99.90
38241;DHT22;24037;49.536;8.500;2023-03-11T04:24:18;1.50;99.90
38241;DHT22;24037;49.536;8.500;2023-03-11T04:26:44;1.60;99.90
38241;DHT22;24037;49.536;8.500;2023-03-11T04:29:14;1.60;99.90
38241;DHT22;24037;49.536;8.500;2023-03-11T04:31:46;1.50;99.90
38241;DHT22;24037;49.536;8.500;2023-03-11T04:34:13;1.50;99.90
38241;DHT22;24037;49.536;8.500;2023-03-11T04:36:39;1.50;99.90
38241;DHT22;24037;49.536;8.500;2023-03-11T04:39:06;1.40;99.90
38241;DHT22;24037;49.536;8.500;2023-03-11T04:41:38;1.40;99.90
38241;DHT22;24037;49.536;8.500;2023-03-11T04:44:06;1.30;99.90
38241;DHT22;24037;49.536;8.500;2023-03-11T04:46:32;1.20;99.90
38241;DHT22;24037;49.536;8.500;2023-03-11T04:48:59;1.10;99.90
38241;DHT22;24037;49.536;8.500;2023-03-11T04:51:26;1.10;99.90
38241;DHT22;24037;49.536;8.500;2023-03-11T04:53:52;1.00;99.90
38241;DHT22;24037;49.536;8.500;2023-03-11T04:56:19;0.90;99.90
38241;DHT22;24037;49.536;8.500;2023-03-11T04:58:46;0.90;99.90
38241;DHT22;24037;49.536;8.500;2023-03-11T05:01:12;0.90;99.90
38241;DHT22;24037;49.536;8.500;2023-03-11T05:03:39;0.80;99.90
38241;DHT22;24037;49.536;8.500;2023-03-11T05:06:06;0.90;99.90
38241;DHT22;24037;49.536;8.500;2023-03-11T05:08:32;0.90;99.90
38241;DHT22;24037;49.536;8.500;2023-03-11T05:10:58;0.90;99.90
38241;DHT22;24037;49.536;8.500;2023-03-11T05:13:24;0.90;99.90
38241;DHT22;24037;49.536;8.500;2023-03-11T05:15:52;0.80;99.90
38241;DHT22;24037;49.536;8.500;2023-03-11T05:18:18;0.90;99.90
38241;DHT22;24037;49.536;8.500;2023-03-11T05:20:45;1.00;99.90
38241;DHT22;24037;49.536;8.500;2023-03-11T05:23:13;1.10;99.90
38241;DHT22;24037;49.536;8.500;2023-03-11T05:25:40;1.10;99.90
38241;DHT22;24037;49.536;8.500;2023-03-11T05:28:07;1.10;99.90
38241;DHT22;24037;49.536;8.500;2023-03-11T05:30:38;1.10;99.90
38241;DHT22;24037;49.536;8.500;2023-03-11T05:33:04;1.00;99.90
38241;DHT22;24037;49.536;8.500;2023-03-11T05:35:30;1.00;99.90
38241;DHT22;24037;49.536;8.500;2023-03-11T05:37:57;0.90;99.90
38241;DHT22;24037;49.536;8.500;2023-03-11T05:40:26;0.80;99.90
38241;DHT22;24037;49.536;8.500;2023-03-11T05:42:52;0.70;99.90
38241;DHT22;24037;49.536;8.500;2023-03-11T05:45:19;0.70;99.90
38241;DHT22;24037;49.536;8.500;2023-03-11T05:47:48;0.70;99.90
38241;DHT22;24037;49.536;8.500;2023-03-11T05:50:15;0.70;99.90
38241;DHT22;24037;49.536;8.500;2023-03-11T05:52:44;0.60;99.90
38241;DHT22;24037;49.536;8.500;2023-03-11T05:55:11;0.60;99.90
38241;DHT22;24037;49.536;8.500;2023-03-11T05:57:43;0.60;99.90
38241;DHT22;24037;49.536;8.500;2023-03-11T06:00:10;0.60;99.90
38241;DHT22;24037;49.536;8.500;2023-03-11T06:02:40;0.50;99.90
38241;DHT22;24037;49.536;8.500;2023-03-11T06:05:09;0.60;99.90
38241;DHT22;24037;49.536;8.500;2023-03-11T06:07:36;0.50;99.90
38241;DHT22;24037;49.536;8.500;2023-03-11T06:10:04;0.60;99.90
38241;DHT22;24037;49.536;8.500;2023-03-11T06:12:35;0.60;99.90
38241;DHT22;24037;49.536;8.500;2023-03-11T06:15:12;0.60;99.90
38241;DHT22;24037;49.536;8.500;2023-03-11T06:17:39;0.60;99.90
38241;DHT22;24037;49.536;8.500;2023-03-11T06:20:07;0.70;99.90
38241;DHT22;24037;49.536;8.500;2023-03-11T06:22:35;0.70;99.90
38241;DHT22;24037;49.536;8.500;2023-03-11T06:25:01;0.80;99.90
38241;DHT22;24037;49.536;8.500;2023-03-11T06:27:30;0.70;99.90
38241;DHT22;24037;49.536;8.500;2023-03-11T06:29:56;0.70;99.90
38241;DHT22;24037;49.536;8.500;2023-03-11T06:32:24;0.70;99.90
38241;DHT22;24037;49.536;8.500;2023-03-11T06:34:51;0.80;99.90
38241;DHT22;24037;49.536;8.500;2023-03-11T06:37:18;0.90;99.90
38241;DHT22;24037;49.536;8.500;2023-03-11T06:39:46;1.10;99.90
38241;DHT22;24037;49.536;8.500;2023-03-11T06:42:19;1.30;99.90
38241;DHT22;24037;49.536;8.500;2023-03-11T06:44:48;1.50;99.90
38241;DHT22;24037;49.536;8.500;2023-03-11T06:47:15;1.50;99.90
38241;DHT22;24037;49.536;8.500;2023-03-11T06:49:41;1.50;99.90
38241;DHT22;24037;49.536;8.500;2023-03-11T06:52:08;1.50;99.90
38241;DHT22;24037;49.536;8.500;2023-03-11T06:54:34;1.60;99.90
38241;DHT22;24037;49.536;8.500;2023-03-11T06:57:01;1.70;99.90
38241;DHT22;24037;49.536;8.500;2023-03-11T06:59:27;1.80;99.90
38241;DHT22;24037;49.536;8.500;2023-03-11T07:01:54;2.10;99.90
38241;DHT22;24037;49.536;8.500;2023-03-11T07:04:21;2.40;99.90
38241;DHT22;24037;49.536;8.500;2023-03-11T07:06:50;2.30;99.90
38241;DHT22;24037;49.536;8.500;2023-03-11T07:09:20;2.50;99.90
38241;DHT22;24037;49.536;8.500;2023-03-11T07:11:48;2.70;99.90
38241;DHT22;24037;49.536;8.500;2023-03-11T07:14:21;2.90;99.90
38241;DHT22;24037;49.536;8.500;2023-03-11T07:16:51;3.10;99.90
38241;DHT22;24037;49.536;8.500;2023-03-11T07:19:25;3.30;99.90
38241;DHT22;24037;49.536;8.500;2023-03-11T07:21:52;3.30;99.90
38241;DHT22;24037;49.536;8.500;2023-03-11T07:24:18;3.30;99.90
38241;DHT22;24037;49.536;8.500;2023-03-11T07:26:44;3.40;99.90
38241;DHT22;24037;49.536;8.500;2023-03-11T07:29:11;3.60;99.90
38241;DHT22;24037;49.536;8.500;2023-03-11T07:31:37;3.40;99.90
38241;DHT22;24037;49.536;8.500;2023-03-11T07:34:05;3.30;99.90
38241;DHT22;24037;49.536;8.500;2023-03-11T07:36:38;3.30;99.90
38241;DHT22;24037;49.536;8.500;2023-03-11T07:39:05;3.40;99.90
38241;DHT22;24037;49.536;8.500;2023-03-11T07:41:33;3.20;99.90
38241;DHT22;24037;49.536;8.500;2023-03-11T07:44:01;3.30;99.90
38241;DHT22;24037;49.536;8.500;2023-03-11T07:46:28;3.20;99.90
38241;DHT22;24037;49.536;8.500;2023-03-11T07:48:55;3.20;99.90
38241;DHT22;24037;49.536;8.500;2023-03-11T07:51:27;3.30;99.90
38241;DHT22;24037;49.536;8.500;2023-03-11T07:53:54;3.40;99.90
38241;DHT22;24037;49.536;8.500;2023-03-11T07:56:22;3.60;99.90
38241;DHT22;24037;49.536;8.500;2023-03-11T07:58:49;4.10;99.90
38241;DHT22;24037;49.536;8.500;2023-03-11T08:01:26;3.90;99.90
38241;DHT22;24037;49.536;8.500;2023-03-11T08:03:55;4.00;99.90
38241;DHT22;24037;49.536;8.500;2023-03-11T08:06:26;3.70;99.90
38241;DHT22;24037;49.536;8.500;2023-03-11T08:08:52;3.60;99.90
38241;DHT22;24037;49.536;8.500;2023-03-11T08:11:19;3.60;99.90
38241;DHT22;24037;49.536;8.500;2023-03-11T08:13:46;3.40;99.90
38241;DHT22;24037;49.536;8.500;2023-03-11T08:16:15;3.50;99.90
38241;DHT22;24037;49.536;8.500;2023-03-11T08:18:43;3.70;99.90
38241;DHT22;24037;49.536;8.500;2023-03-11T08:21:15;3.80;99.90
38241;DHT22;24037;49.536;8.500;2023-03-11T08:23:41;4.10;99.90
38241;DHT22;24037;49.536;8.500;2023-03-11T08:26:13;4.10;99.90
38241;DHT22;24037;49.536;8.500;2023-03-11T08:28:40;4.40;99.90
38241;DHT22;24037;49.536;8.500;2023-03-11T08:31:20;4.30;99.90
38241;DHT22;24037;49.536;8.500;2023-03-11T08:33:48;4.50;99.90
38241;DHT22;24037;49.536;8.500;2023-03-11T08:36:18;4.50;99.90
38241;DHT22;24037;49.536;8.500;2023-03-11T08:38:44;4.70;99.90
38241;DHT22;24037;49.536;8.500;2023-03-11T08:41:11;4.50;99.90
38241;DHT22;24037;49.536;8.500;2023-03-11T08:43:38;4.50;99.90
38241;DHT22;24037;49.536;8.500;2023-03-11T08:46:05;4.30;99.90
38241;DHT22;24037;49.536;8.500;2023-03-11T08:48:36;4.20;99.90
38241;DHT22;24037;49.536;8.500;2023-03-11T08:51:09;4.60;99.90
38241;DHT22;24037;49.536;8.500;2023-03-11T08:53:35;4.60;99.90
38241;DHT22;24037;49.536;8.500;2023-03-11T08:56:02;4.90;99.90
38241;DHT22;24037;49.536;8.500;2023-03-11T08:58:28;4.70;99.90
38241;DHT22;24037;49.536;8.500;2023-03-11T09:00:55;4.60;99.90
38241;DHT22;24037;49.536;8.500;2023-03-11T09:03:22;4.70;99.90
38241;DHT22;24037;49.536;8.500;2023-03-11T09:05:48;5.10;99.90
38241;DHT22;24037;49.536;8.500;2023-03-11T09:08:14;4.70;99.90
38241;DHT22;24037;49.536;8.500;2023-03-11T09:10:41;4.20;99.90
38241;DHT22;24037;49.536;8.500;2023-03-11T09:13:07;4.40;99.90
38241;DHT22;24037;49.536;8.500;2023-03-11T09:15:36;5.10;99.90
38241;DHT22;24037;49.536;8.500;2023-03-11T09:18:03;5.20;99.90
38241;DHT22;24037;49.536;8.500;2023-03-11T09:20:29;5.40;99.90
38241;DHT22;24037;49.536;8.500;2023-03-11T09:22:55;5.70;99.90
38241;DHT22;24037;49.536;8.500;2023-03-11T09:25:22;6.40;99.90
38241;DHT22;24037;49.536;8.500;2023-03-11T09:27:48;7.10;99.90
38241;DHT22;24037;49.536;8.500;2023-03-11T09:30:17;6.70;99.90
38241;DHT22;24037;49.536;8.500;2023-03-11T09:32:43;6.10;99.90
38241;DHT22;24037;49.536;8.500;2023-03-11T09:35:12;5.60;99.90
38241;DHT22;24037;49.536;8.500;2023-03-11T09:37:38;5.30;99.90
38241;DHT22;24037;49.536;8.500;2023-03-11T09:40:05;4.80;99.90
38241;DHT22;24037;49.536;8.500;2023-03-11T09:42:51;4.50;99.90
38241;DHT22;24037;49.536;8.500;2023-03-11T09:45:26;4.50;99.90
38241;DHT22;24037;49.536;8.500;2023-03-11T09:48:14;4.50;99.90
38241;DHT22;24037;49.536;8.500;2023-03-11T09:50:59;4.40;99.90
38241;DHT22;24037;49.536;8.500;2023-03-11T09:53:40;4.20;99.90
38241;DHT22;24037;49.536;8.500;2023-03-11T09:56:12;4.20;99.90
38241;DHT22;24037;49.536;8.500;2023-03-11T09:58:46;4.70;99.90
38241;DHT22;24037;49.536;8.500;2023-03-11T10:01:35;4.90;99.90
38241;DHT22;24037;49.536;8.500;2023-03-11T10:04:26;5.10;99.90
38241;DHT22;24037;49.536;8.500;2023-03-11T10:07:01;5.20;99.90
38241;DHT22;24037;49.536;8.500;2023-03-11T10:09:54;5.20;99.90
38241;DHT22;24037;49.536;8.500;2023-03-11T10:15:38;5.50;99.90
38241;DHT22;24037;49.536;8.500;2023-03-11T10:23:55;5.90;99.90
38241;DHT22;24037;49.536;8.500;2023-03-11T10:29:15;5.90;99.90
38241;DHT22;24037;49.536;8.500;2023-03-11T10:31:57;5.30;99.90
38241;DHT22;24037;49.536;8.500;2023-03-11T10:34:31;5.00;99.90
38241;DHT22;24037;49.536;8.500;2023-03-11T10:37:18;4.70;99.90
38241;DHT22;24037;49.536;8.500;2023-03-11T10:39:47;4.50;99.90
38241;DHT22;24037;49.536;8.500;2023-03-11T10:42:23;4.90;99.90
38241;DHT22;24037;49.536;8.500;2023-03-11T10:44:49;5.30;99.90
38241;DHT22;24037;49.536;8.500;2023-03-11T10:47:18;5.40;99.90
38241;DHT22;24037;49.536;8.500;2023-03-11T10:49:45;5.50;99.90
38241;DHT22;24037;49.536;8.500;2023-03-11T10:52:11;5.90;99.90
38241;DHT22;24037;49.536;8.500;2023-03-11T10:54:39;6.30;99.90
38241;DHT22;24037;49.536;8.500;2023-03-11T10:59:55;6.60;99.90
38241;DHT22;24037;49.536;8.500;2023-03-11T11:02:30;7.00;99.90
38241;DHT22;24037;49.536;8.500;2023-03-11T11:07:48;6.80;99.90
38241;DHT22;24037;49.536;8.500;2023-03-11T11:10:23;6.10;99.90
38241;DHT22;24037;49.536;8.500;2023-03-11T11:16:05;5.10;99.90
38241;DHT22;24037;49.536;8.500;2023-03-11T11:18:44;4.70;99.90
38241;DHT22;24037;49.536;8.500;2023-03-11T11:21:16;4.90;99.90
38241;DHT22;24037;49.536;8.500;2023-03-11T11:23:47;4.80;99.90
38241;DHT22;24037;49.536;8.500;2023-03-11T11:26:22;4.90;99.90
38241;DHT22;24037;49.536;8.500;2023-03-11T11:31:37;4.70;99.90
38241;DHT22;24037;49.536;8.500;2023-03-11T11:36:47;5.40;99.90
38241;DHT22;24037;49.536;8.500;2023-03-11T11:39:16;5.30;99.90
38241;DHT22;24037;49.536;8.500;2023-03-11T11:41:44;5.50;99.90
38241;DHT22;24037;49.536;8.500;2023-03-11T11:44:14;5.70;99.90
38241;DHT22;24037;49.536;8.500;2023-03-11T11:46:53;6.10;99.90
38241;DHT22;24037;49.536;8.500;2023-03-11T11:49:26;6.30;99.90
38241;DHT22;24037;49.536;8.500;2023-03-11T11:52:05;6.20;99.90
38241;DHT22;24037;49.536;8.500;2023-03-11T11:54:52;6.60;99.90
38241;DHT22;24037;49.536;8.500;2023-03-11T11:57:21;6.70;99.90
38241;DHT22;24037;49.536;8.500;2023-03-11T11:59:47;6.50;99.90
38241;DHT22;24037;49.536;8.500;2023-03-11T12:02:45;6.90;99.90
38241;DHT22;24037;49.536;8.500;2023-03-11T12:05:22;6.90;99.90
38241;DHT22;24037;49.536;8.500;2023-03-11T12:10:31;6.10;99.90
38241;DHT22;24037;49.536;8.500;2023-03-11T12:13:35;5.60;99.90
38241;DHT22;24037;49.536;8.500;2023-03-11T12:16:49;5.70;99.90
38241;DHT22;24037;49.536;8.500;2023-03-11T12:19:22;5.60;99.90
38241;DHT22;24037;49.536;8.500;2023-03-11T12:30:35;5.40;99.90
38241;DHT22;24037;49.536;8.500;2023-03-11T12:35:36;6.30;99.90
38241;DHT22;24037;49.536;8.500;2023-03-11T12:38:15;6.30;99.40
38241;DHT22;24037;49.536;8.500;2023-03-11T12:40:46;6.40;99.20
38241;DHT22;24037;49.536;8.500;2023-03-11T12:46:03;6.40;98.20
38241;DHT22;24037;49.536;8.500;2023-03-11T12:48:41;6.50;99.90
38241;DHT22;24037;49.536;8.500;2023-03-11T12:53:56;6.30;99.40
38241;DHT22;24037;49.536;8.500;2023-03-11T12:56:36;6.30;98.00
38241;DHT22;24037;49.536;8.500;2023-03-11T13:02:24;6.60;99.90
38241;DHT22;24037;49.536;8.500;2023-03-11T13:05:20;6.60;99.30
38241;DHT22;24037;49.536;8.500;2023-03-11T13:07:51;6.50;99.90
38241;DHT22;24037;49.536;8.500;2023-03-11T13:13:01;6.40;99.90
38241;DHT22;24037;49.536;8.500;2023-03-11T13:15:29;5.90;99.90
38241;DHT22;24037;49.536;8.500;2023-03-11T13:18:00;5.80;99.90
38241;DHT22;24037;49.536;8.500;2023-03-11T13:28:34;6.00;99.90
38241;DHT22;24037;49.536;8.500;2023-03-11T13:31:28;6.40;99.90
38241;DHT22;24037;49.536;8.500;2023-03-11T13:34:10;6.30;99.90
38241;DHT22;24037;49.536;8.500;2023-03-11T13:36:48;6.30;99.90
38241;DHT22;24037;49.536;8.500;2023-03-11T13:41:54;5.90;99.90
38241;DHT22;24037;49.536;8.500;2023-03-11T13:44:35;5.90;99.90
38241;DHT22;24037;49.536;8.500;2023-03-11T13:47:06;6.00;99.90
38241;DHT22;24037;49.536;8.500;2023-03-11T13:49:44;5.80;99.90
38241;DHT22;24037;49.536;8.500;2023-03-11T13:52:24;5.60;99.90
38241;DHT22;24037;49.536;8.500;2023-03-11T13:54:59;5.70;99.90
38241;DHT22;24037;49.536;8.500;2023-03-11T13:57:29;5.70;99.90
38241;DHT22;24037;49.536;8.500;2023-03-11T14:00:05;5.80;99.90
38241;DHT22;24037;49.536;8.500;2023-03-11T14:02:46;5.70;99.90
38241;DHT22;24037;49.536;8.500;2023-03-11T14:05:35;5.80;99.90
38241;DHT22;24037;49.536;8.500;2023-03-11T14:10:55;5.20;99.90
38241;DHT22;24037;49.536;8.500;2023-03-11T14:13:23;5.60;99.90
38241;DHT22;24037;49.536;8.500;2023-03-11T14:15:55;5.50;99.90
38241;DHT22;24037;49.536;8.500;2023-03-11T14:20:59;5.60;99.90
38241;DHT22;24037;49.536;8.500;2023-03-11T14:23:49;5.70;99.90
38241;DHT22;24037;49.536;8.500;2023-03-11T14:26:29;6.00;99.90
38241;DHT22;24037;49.536;8.500;2023-03-11T14:29:00;5.80;99.90
38241;DHT22;24037;49.536;8.500;2023-03-11T14:31:38;5.70;99.90
38241;DHT22;24037;49.536;8.500;2023-03-11T14:36:49;5.60;99.90
38241;DHT22;24037;49.536;8.500;2023-03-11T14:39:34;5.70;99.90
38241;DHT22;24037;49.536;8.500;2023-03-11T14:44:27;5.60;99.90
38241;DHT22;24037;49.536;8.500;2023-03-11T14:49:34;5.50;99.90
38241;DHT22;24037;49.536;8.500;2023-03-11T14:52:08;5.50;99.90
38241;DHT22;24037;49.536;8.500;2023-03-11T14:54:36;5.50;99.90
38241;DHT22;24037;49.536;8.500;2023-03-11T14:57:10;5.60;99.90
38241;DHT22;24037;49.536;8.500;2023-03-11T14:59:45;5.70;99.90
38241;DHT22;24037;49.536;8.500;2023-03-11T15:05:01;5.50;99.90
38241;DHT22;24037;49.536;8.500;2023-03-11T15:07:29;5.30;99.90
38241;DHT22;24037;49.536;8.500;2023-03-11T15:09:55;5.20;99.90
38241;DHT22;24037;49.536;8.500;2023-03-11T15:12:33;5.20;99.90
38241;DHT22;24037;49.536;8.500;2023-03-11T15:15:00;5.00;99.90
38241;DHT22;24037;49.536;8.500;2023-03-11T15:17:27;5.10;99.90
38241;DHT22;24037;49.536;8.500;2023-03-11T15:19:54;5.10;99.90
38241;DHT22;24037;49.536;8.500;2023-03-11T15:22:29;5.10;99.90
38241;DHT22;24037;49.536;8.500;2023-03-11T15:24:59;5.10;99.90
38241;DHT22;24037;49.536;8.500;2023-03-11T15:27:35;5.10;99.90
38241;DHT22;24037;49.536;8.500;2023-03-11T15:30:13;5.20;99.90
38241;DHT22;24037;49.536;8.500;2023-03-11T15:32:42;5.30;99.90
38241;DHT22;24037;49.536;8.500;2023-03-11T15:37:38;5.20;99.90
38241;DHT22;24037;49.536;8.500;2023-03-11T15:40:30;5.20;99.90
38241;DHT22;24037;49.536;8.500;2023-03-11T15:43:32;5.00;99.90
38241;DHT22;24037;49.536;8.500;2023-03-11T15:46:01;5.20;99.90
38241;DHT22;24037;49.536;8.500;2023-03-11T15:48:28;5.30;99.90
38241;DHT22;24037;49.536;8.500;2023-03-11T15:50:57;5.30;99.90
38241;DHT22;24037;49.536;8.500;2023-03-11T15:53:25;5.10;99.90
38241;DHT22;24037;49.536;8.500;2023-03-11T15:55:53;5.10;99.90
38241;DHT22;24037;49.536;8.500;2023-03-11T15:58:22;4.90;99.90
38241;DHT22;24037;49.536;8.500;2023-03-11T16:00:50;5.00;99.90
38241;DHT22;24037;49.536;8.500;2023-03-11T16:03:18;4.90;99.90
38241;DHT22;24037;49.536;8.500;2023-03-11T16:05:45;4.80;99.90
38241;DHT22;24037;49.536;8.500;2023-03-11T16:08:11;4.70;99.90
38241;DHT22;24037;49.536;8.500;2023-03-11T16:10:38;4.70;99.90
38241;DHT22;24037;49.536;8.500;2023-03-11T16:13:04;4.50;99.90
38241;DHT22;24037;49.536;8.500;2023-03-11T16:15:36;4.50;99.90
38241;DHT22;24037;49.536;8.500;2023-03-11T16:18:04;4.50;99.90
38241;DHT22;24037;49.536;8.500;2023-03-11T16:20:42;4.50;99.90
38241;DHT22;24037;49.536;8.500;2023-03-11T16:23:19;4.60;99.90
38241;DHT22;24037;49.536;8.500;2023-03-11T16:25:46;4.60;99.90
38241;DHT22;24037;49.536;8.500;2023-03-11T16:28:13;4.50;99.90
38241;DHT22;24037;49.536;8.500;2023-03-11T16:30:40;4.60;99.90
38241;DHT22;24037;49.536;8.500;2023-03-11T16:33:07;4.60;99.90
38241;DHT22;24037;49.536;8.500;2023-03-11T16:35:33;4.70;99.90
38241;DHT22;24037;49.536;8.500;2023-03-11T16:38:00;4.80;99.90
38241;DHT22;24037;49.536;8.500;2023-03-11T16:40:27;4.80;99.90
38241;DHT22;24037;49.536;8.500;2023-03-11T16:43:05;4.80;99.90
38241;DHT22;24037;49.536;8.500;2023-03-11T16:45:31;4.70;99.90
38241;DHT22;24037;49.536;8.500;2023-03-11T16:47:58;4.60;99.90
38241;DHT22;24037;49.536;8.500;2023-03-11T16:50:24;4.50;99.90
38241;DHT22;24037;49.536;8.500;2023-03-11T16:52:53;4.40;99.90
38241;DHT22;24037;49.536;8.500;2023-03-11T16:55:19;4.40;99.90
38241;DHT22;24037;49.536;8.500;2023-03-11T16:57:45;4.30;99.90
38241;DHT22;24037;49.536;8.500;2023-03-11T17:00:12;4.20;99.90
38241;DHT22;24037;49.536;8.500;2023-03-11T17:02:40;4.10;99.90
38241;DHT22;24037;49.536;8.500;2023-03-11T17:05:07;4.10;99.90
38241;DHT22;24037;49.536;8.500;2023-03-11T17:07:34;4.00;99.90
38241;DHT22;24037;49.536;8.500;2023-03-11T17:10:01;3.90;99.90
38241;DHT22;24037;49.536;8.500;2023-03-11T17:12:28;3.80;99.90
38241;DHT22;24037;49.536;8.500;2023-03-11T17:14:54;3.70;99.90
38241;DHT22;24037;49.536;8.500;2023-03-11T17:17:21;3.70;99.90
38241;DHT22;24037;49.536;8.500;2023-03-11T17:19:47;3.60;99.90
38241;DHT22;24037;49.536;8.500;2023-03-11T17:22:14;3.50;99.90
38241;DHT22;24037;49.536;8.500;2023-03-11T17:24:40;3.40;99.90
38241;DHT22;24037;49.536;8.500;2023-03-11T17:27:06;3.40;99.90
38241;DHT22;24037;49.536;8.500;2023-03-11T17:29:33;3.40;99.90
38241;DHT22;24037;49.536;8.500;2023-03-11T17:32:00;3.30;99.90
38241;DHT22;24037;49.536;8.500;2023-03-11T17:34:26;3.20;99.90